createdAt,value
2022-08-17T00:00:49.190Z,0.00
2022-08-17T00:01:51.839Z,0.00
2022-08-17T00:02:43.119Z,0.00
2022-08-17T00:03:38.776Z,0.00
2022-08-17T00:04:38.796Z,0.00
2022-08-17T00:05:38.736Z,0.00
2022-08-17T00:06:38.744Z,0.00
2022-08-17T00:07:38.709Z,0.00
2022-08-17T00:08:38.716Z,0.00
2022-08-17T00:09:38.702Z,0.00
2022-08-17T00:10:38.701Z,0.00
2022-08-17T00:11:38.668Z,0.00
2022-08-17T00:12:42.639Z,0.00
2022-08-17T00:13:39.661Z,0.00
2022-08-17T00:14:38.651Z,0.00
2022-08-17T00:15:38.616Z,0.00
2022-08-17T00:16:56.649Z,0.00
2022-08-17T00:17:39.607Z,0.00
2022-08-17T00:19:01.477Z,0.00
2022-08-17T00:19:39.580Z,0.00
2022-08-17T00:20:38.580Z,0.00
2022-08-17T00:22:14.723Z,0.00
2022-08-17T00:22:39.585Z,0.00
2022-08-17T00:23:38.570Z,0.00
2022-08-17T00:24:39.530Z,0.00
2022-08-17T00:25:38.508Z,0.00
2022-08-17T00:26:45.066Z,0.00
2022-08-17T00:27:39.528Z,0.00
2022-08-17T00:28:38.513Z,0.00
2022-08-17T00:29:38.468Z,0.00
2022-08-17T00:30:52.880Z,0.00
2022-08-17T00:31:39.452Z,0.00
2022-08-17T00:33:12.433Z,0.00
2022-08-17T00:33:39.440Z,0.00
2022-08-17T00:34:38.432Z,0.00
2022-08-17T00:35:38.420Z,0.00
2022-08-17T00:36:38.412Z,0.00
2022-08-17T00:37:38.381Z,0.00
2022-08-17T00:38:38.381Z,0.00
2022-08-17T00:39:38.422Z,0.00
2022-08-17T00:40:40.833Z,0.00
2022-08-17T00:41:42.089Z,0.00
2022-08-17T00:42:38.404Z,0.00
2022-08-17T00:43:38.333Z,0.00
2022-08-17T00:44:38.312Z,0.00
2022-08-17T00:45:38.293Z,0.00
2022-08-17T00:46:38.292Z,0.00
2022-08-17T00:47:38.276Z,0.00
2022-08-17T00:48:38.265Z,0.00
2022-08-17T00:49:38.261Z,0.00
2022-08-17T00:50:38.280Z,0.00
2022-08-17T00:51:38.229Z,0.00
2022-08-17T00:52:38.233Z,0.00
2022-08-17T00:53:38.225Z,0.00
2022-08-17T00:54:41.784Z,0.00
2022-08-17T00:55:38.184Z,0.00
2022-08-17T00:56:38.196Z,0.00
2022-08-17T00:57:38.171Z,0.00
2022-08-17T00:58:38.176Z,0.00
2022-08-17T00:59:38.145Z,0.00
2022-08-17T01:00:38.129Z,0.00
2022-08-17T01:01:38.157Z,0.00
2022-08-17T01:02:42.177Z,0.00
2022-08-17T01:03:38.097Z,0.00
2022-08-17T01:04:38.092Z,0.00
2022-08-17T01:05:38.068Z,0.00
2022-08-17T01:06:38.077Z,0.00
2022-08-17T01:07:38.171Z,0.00
2022-08-17T01:08:38.065Z,0.00
2022-08-17T01:09:38.037Z,0.00
2022-08-17T01:11:01.122Z,0.00
2022-08-17T01:11:39.010Z,0.00
2022-08-17T01:12:38.017Z,0.00
2022-08-17T01:13:41.093Z,0.00
2022-08-17T01:14:37.992Z,0.00
2022-08-17T01:15:37.965Z,0.00
2022-08-17T01:16:37.961Z,0.00
2022-08-17T01:17:37.941Z,0.00
2022-08-17T01:18:37.950Z,0.00
2022-08-17T01:19:37.930Z,0.00
2022-08-17T01:20:41.909Z,0.00
2022-08-17T01:21:38.909Z,0.00
2022-08-17T01:22:38.048Z,0.00
2022-08-17T01:23:37.889Z,0.00
2022-08-17T01:24:37.913Z,0.00
2022-08-17T01:25:37.873Z,0.00
2022-08-17T01:26:37.849Z,0.00
2022-08-17T01:27:37.826Z,0.00
2022-08-17T01:28:54.372Z,0.00
2022-08-17T01:29:38.821Z,0.00
2022-08-17T01:30:58.723Z,0.00
2022-08-17T01:31:38.784Z,0.00
2022-08-17T01:32:37.794Z,0.00
2022-08-17T01:33:37.761Z,0.00
2022-08-17T01:34:42.506Z,0.00
2022-08-17T01:35:38.733Z,0.00
2022-08-17T01:36:37.732Z,0.00
2022-08-17T01:37:37.761Z,0.00
2022-08-17T01:38:37.713Z,0.00
2022-08-17T01:39:37.821Z,0.00
2022-08-17T01:40:37.717Z,0.00
2022-08-17T01:41:37.666Z,0.00
2022-08-17T01:42:37.657Z,0.00
2022-08-17T01:43:37.665Z,0.00
2022-08-17T01:44:37.654Z,0.00
2022-08-17T01:45:37.646Z,0.00
2022-08-17T01:46:37.613Z,0.00
2022-08-17T01:47:37.625Z,0.00
2022-08-17T01:48:37.597Z,0.00
2022-08-17T01:49:37.585Z,0.00
2022-08-17T01:50:37.586Z,0.00
2022-08-17T01:51:37.605Z,0.00
2022-08-17T01:52:37.546Z,0.00
2022-08-17T01:53:37.565Z,0.00
2022-08-17T01:54:37.537Z,0.00
2022-08-17T01:55:37.626Z,0.00
2022-08-17T01:56:37.505Z,0.00
2022-08-17T01:57:37.514Z,0.00
2022-08-17T01:58:37.478Z,0.00
2022-08-17T01:59:37.652Z,0.00
2022-08-17T02:00:59.392Z,0.00
2022-08-17T02:01:38.593Z,0.00
2022-08-17T02:02:37.452Z,0.00
2022-08-17T02:03:37.451Z,0.00
2022-08-17T02:04:37.421Z,0.00
2022-08-17T02:05:37.431Z,0.00
2022-08-17T02:06:52.973Z,0.00
2022-08-17T02:07:59.857Z,0.00
2022-08-17T02:08:39.520Z,0.00
2022-08-17T02:09:38.373Z,0.00
2022-08-17T02:10:37.377Z,0.00
2022-08-17T02:11:38.462Z,0.00
2022-08-17T02:12:39.670Z,0.00
2022-08-17T02:13:37.330Z,0.00
2022-08-17T02:14:37.322Z,0.00
2022-08-17T02:15:37.309Z,0.00
2022-08-17T02:16:38.335Z,0.00
2022-08-17T02:17:37.282Z,0.00
2022-08-17T02:18:37.258Z,0.00
2022-08-17T02:19:37.274Z,0.00
2022-08-17T02:20:42.359Z,0.00
2022-08-17T02:21:38.267Z,0.00
2022-08-17T02:22:37.211Z,0.00
2022-08-17T02:23:37.222Z,0.00
2022-08-17T02:25:01.219Z,0.00
2022-08-17T02:25:38.234Z,0.00
2022-08-17T02:26:37.219Z,0.00
2022-08-17T02:27:37.173Z,0.00
2022-08-17T02:28:37.142Z,0.00
2022-08-17T02:29:37.154Z,0.00
2022-08-17T02:31:01.843Z,0.00
2022-08-17T02:31:38.290Z,0.00
2022-08-17T02:32:37.102Z,0.00
2022-08-17T02:33:42.805Z,0.00
2022-08-17T02:34:38.094Z,0.00
2022-08-17T02:35:37.086Z,0.00
2022-08-17T02:36:37.073Z,0.00
2022-08-17T02:37:37.059Z,0.00
2022-08-17T02:38:37.047Z,0.00
2022-08-17T02:39:37.111Z,0.00
2022-08-17T02:40:37.022Z,0.00
2022-08-17T02:41:37.026Z,0.00
2022-08-17T02:42:36.997Z,0.00
2022-08-17T02:43:37.039Z,0.00
2022-08-17T02:44:39.662Z,0.00
2022-08-17T02:45:36.987Z,0.00
2022-08-17T02:46:36.956Z,0.00
2022-08-17T02:47:36.951Z,0.00
2022-08-17T02:48:36.935Z,0.00
2022-08-17T02:49:36.927Z,0.00
2022-08-17T02:50:36.919Z,0.00
2022-08-17T02:51:37.310Z,0.00
2022-08-17T02:52:42.443Z,0.00
2022-08-17T02:53:37.875Z,0.00
2022-08-17T02:54:41.765Z,0.00
2022-08-17T02:55:37.850Z,0.00
2022-08-17T02:56:36.839Z,0.00
2022-08-17T02:57:36.892Z,0.00
2022-08-17T02:58:36.819Z,0.00
2022-08-17T02:59:36.812Z,0.00
2022-08-17T03:00:36.807Z,0.00
2022-08-17T03:01:36.840Z,0.00
2022-08-17T03:02:36.781Z,0.00
2022-08-17T03:03:36.783Z,0.00
2022-08-17T03:04:36.787Z,0.00
2022-08-17T03:05:36.744Z,0.00
2022-08-17T03:06:36.741Z,0.00
2022-08-17T03:07:36.719Z,0.00
2022-08-17T03:08:36.700Z,0.00
2022-08-17T03:09:36.704Z,0.00
2022-08-17T03:10:36.684Z,0.00
2022-08-17T03:11:36.705Z,0.00
2022-08-17T03:12:36.696Z,0.00
2022-08-17T03:13:36.663Z,0.00
2022-08-17T03:14:41.095Z,0.00
2022-08-17T03:15:37.631Z,0.00
2022-08-17T03:16:37.643Z,0.00
2022-08-17T03:17:36.623Z,0.00
2022-08-17T03:18:36.599Z,0.00
2022-08-17T03:19:36.596Z,0.00
2022-08-17T03:20:36.571Z,0.00
2022-08-17T03:21:36.591Z,0.00
2022-08-17T03:22:38.506Z,0.00
2022-08-17T03:23:36.545Z,0.00
2022-08-17T03:24:36.524Z,0.00
2022-08-17T03:25:36.525Z,0.00
2022-08-17T03:26:36.524Z,0.00
2022-08-17T03:27:36.503Z,0.00
2022-08-17T03:28:36.517Z,0.00
2022-08-17T03:29:36.476Z,0.00
2022-08-17T03:30:36.468Z,0.00
2022-08-17T03:31:37.023Z,0.00
2022-08-17T03:32:36.450Z,0.00
2022-08-17T03:33:36.438Z,0.00
2022-08-17T03:34:36.456Z,0.00
2022-08-17T03:35:36.422Z,0.00
2022-08-17T03:36:36.397Z,0.00
2022-08-17T03:37:36.388Z,0.00
2022-08-17T03:38:39.089Z,0.00
2022-08-17T03:39:36.446Z,0.00
2022-08-17T03:40:58.440Z,0.00
2022-08-17T03:41:37.356Z,0.00
2022-08-17T03:42:36.348Z,0.00
2022-08-17T03:43:36.350Z,0.00
2022-08-17T03:44:36.301Z,0.00
2022-08-17T03:45:36.356Z,0.00
2022-08-17T03:46:36.291Z,4.00
2022-08-17T03:47:36.293Z,4.00
2022-08-17T03:48:36.262Z,4.00
2022-08-17T03:49:36.261Z,0.00
2022-08-17T03:50:36.242Z,0.00
2022-08-17T03:51:36.248Z,4.00
2022-08-17T03:52:36.213Z,4.00
2022-08-17T03:53:36.216Z,4.00
2022-08-17T03:54:36.212Z,4.00
2022-08-17T03:55:36.517Z,4.00
2022-08-17T03:56:36.172Z,4.00
2022-08-17T03:57:36.169Z,4.00
2022-08-17T03:58:36.174Z,4.00
2022-08-17T03:59:36.209Z,4.00
2022-08-17T04:00:36.189Z,8.00
2022-08-17T04:01:36.175Z,12.00
2022-08-17T04:02:36.107Z,12.00
2022-08-17T04:03:36.101Z,12.00
2022-08-17T04:04:36.080Z,16.00
2022-08-17T04:05:36.101Z,16.00
2022-08-17T04:06:36.246Z,16.00
2022-08-17T04:07:36.077Z,20.00
2022-08-17T04:08:36.056Z,24.00
2022-08-17T04:09:36.053Z,24.00
2022-08-17T04:10:38.469Z,24.00
2022-08-17T04:11:37.061Z,28.00
2022-08-17T04:12:36.016Z,32.00
2022-08-17T04:13:36.100Z,36.00
2022-08-17T04:14:35.999Z,40.00
2022-08-17T04:15:36.005Z,48.00
2022-08-17T04:16:35.973Z,52.00
2022-08-17T04:17:35.965Z,56.00
2022-08-17T04:18:35.936Z,60.00
2022-08-17T04:19:35.945Z,60.00
2022-08-17T04:20:35.937Z,64.00
2022-08-17T04:21:35.981Z,68.00
2022-08-17T04:22:35.925Z,68.00
2022-08-17T04:23:35.904Z,72.00
2022-08-17T04:24:35.869Z,72.00
2022-08-17T04:25:35.858Z,76.00
2022-08-17T04:26:52.451Z,76.00
2022-08-17T04:27:36.863Z,76.00
2022-08-17T04:28:35.838Z,80.00
2022-08-17T04:29:54.422Z,80.00
2022-08-17T04:30:36.798Z,84.00
2022-08-17T04:31:35.802Z,92.00
2022-08-17T04:33:04.057Z,96.00
2022-08-17T04:33:36.777Z,96.00
2022-08-17T04:34:35.777Z,104.00
2022-08-17T04:35:35.759Z,112.00
2022-08-17T04:36:35.732Z,112.00
2022-08-17T04:37:35.718Z,120.00
2022-08-17T04:38:35.737Z,120.00
2022-08-17T04:39:35.749Z,120.00
2022-08-17T04:40:36.076Z,124.00
2022-08-17T04:41:35.689Z,128.00
2022-08-17T04:42:35.670Z,132.00
2022-08-17T04:43:35.670Z,136.00
2022-08-17T04:44:37.828Z,140.00
2022-08-17T04:45:35.649Z,144.00
2022-08-17T04:46:35.622Z,144.00
2022-08-17T04:47:35.622Z,148.00
2022-08-17T04:48:37.469Z,152.00
2022-08-17T04:49:35.590Z,160.00
2022-08-17T04:50:35.582Z,160.00
2022-08-17T04:51:35.789Z,168.00
2022-08-17T04:52:43.655Z,172.00
2022-08-17T04:53:36.773Z,180.00
2022-08-17T04:54:35.530Z,188.00
2022-08-17T04:55:35.530Z,196.00
2022-08-17T04:56:35.534Z,208.00
2022-08-17T04:57:39.313Z,220.00
2022-08-17T04:58:36.482Z,232.00
2022-08-17T04:59:35.490Z,248.00
2022-08-17T05:00:35.586Z,260.00
2022-08-17T05:01:35.519Z,272.00
2022-08-17T05:02:35.443Z,280.00
2022-08-17T05:03:36.445Z,296.00
2022-08-17T05:04:35.609Z,308.00
2022-08-17T05:05:35.443Z,312.00
2022-08-17T05:06:35.403Z,320.00
2022-08-17T05:07:35.408Z,328.00
2022-08-17T05:08:35.387Z,332.00
2022-08-17T05:09:35.387Z,336.00
2022-08-17T05:10:35.354Z,344.00
2022-08-17T05:11:35.354Z,352.00
2022-08-17T05:12:35.334Z,364.00
2022-08-17T05:13:35.334Z,372.00
2022-08-17T05:14:35.327Z,380.00
2022-08-17T05:15:36.022Z,392.00
2022-08-17T05:16:35.494Z,404.00
2022-08-17T05:17:35.289Z,416.00
2022-08-17T05:18:35.298Z,424.00
2022-08-17T05:19:35.279Z,432.00
2022-08-17T05:20:35.428Z,444.00
2022-08-17T05:21:35.245Z,456.00
2022-08-17T05:22:35.227Z,468.00
2022-08-17T05:23:41.808Z,476.00
2022-08-17T05:24:42.868Z,488.00
2022-08-17T05:25:36.300Z,500.00
2022-08-17T05:26:36.468Z,512.00
2022-08-17T05:27:36.049Z,524.00
2022-08-17T05:28:35.161Z,536.00
2022-08-17T05:29:35.976Z,552.00
2022-08-17T05:30:35.148Z,560.00
2022-08-17T05:31:35.139Z,576.00
2022-08-17T05:32:38.982Z,588.00
2022-08-17T05:33:36.119Z,608.00
2022-08-17T05:34:35.092Z,624.00
2022-08-17T05:35:35.099Z,644.00
2022-08-17T05:36:41.882Z,664.00
2022-08-17T05:37:36.046Z,684.00
2022-08-17T05:38:35.059Z,708.00
2022-08-17T05:39:35.237Z,732.00
2022-08-17T05:40:35.165Z,752.00
2022-08-17T05:41:35.019Z,776.00
2022-08-17T05:42:34.999Z,796.00
2022-08-17T05:43:34.991Z,816.00
2022-08-17T05:44:35.004Z,828.00
2022-08-17T05:45:55.795Z,844.00
2022-08-17T05:46:35.983Z,856.00
2022-08-17T05:47:34.943Z,872.00
2022-08-17T05:48:35.605Z,880.00
2022-08-17T05:49:34.915Z,892.00
2022-08-17T05:50:34.951Z,908.00
2022-08-17T05:51:34.917Z,920.00
2022-08-17T05:52:34.899Z,924.00
2022-08-17T05:53:35.218Z,928.00
2022-08-17T05:54:34.883Z,940.00
2022-08-17T05:55:34.895Z,952.00
2022-08-17T05:56:34.855Z,960.00
2022-08-17T05:57:34.844Z,968.00
2022-08-17T05:58:34.846Z,984.00
2022-08-17T05:59:34.827Z,996.00
2022-08-17T06:00:34.875Z,1008.00
2022-08-17T06:01:34.855Z,1024.00
2022-08-17T06:02:34.811Z,1028.00
2022-08-17T06:03:34.777Z,1032.00
2022-08-17T06:04:34.767Z,1028.00
2022-08-17T06:05:34.748Z,1024.00
2022-08-17T06:06:34.755Z,1032.00
2022-08-17T06:07:34.728Z,1036.00
2022-08-17T06:08:34.743Z,1044.00
2022-08-17T06:09:34.748Z,1064.00
2022-08-17T06:10:34.715Z,1068.00
2022-08-17T06:11:35.285Z,1044.00
2022-08-17T06:12:34.675Z,1044.00
2022-08-17T06:13:34.687Z,1052.00
2022-08-17T06:14:34.689Z,1060.00
2022-08-17T06:15:34.660Z,1068.00
2022-08-17T06:16:34.885Z,1080.00
2022-08-17T06:17:34.620Z,1088.00
2022-08-17T06:18:34.620Z,1100.00
2022-08-17T06:19:34.588Z,1112.00
2022-08-17T06:20:34.607Z,1128.00
2022-08-17T06:21:34.568Z,1148.00
2022-08-17T06:22:34.573Z,1164.00
2022-08-17T06:23:34.560Z,1188.00
2022-08-17T06:24:34.567Z,1208.00
2022-08-17T06:25:34.520Z,1240.00
2022-08-17T06:26:38.538Z,1268.00
2022-08-17T06:27:35.500Z,1288.00
2022-08-17T06:28:34.500Z,1312.00
2022-08-17T06:29:34.492Z,1332.00
2022-08-17T06:30:57.367Z,1352.00
2022-08-17T06:31:35.469Z,1368.00
2022-08-17T06:32:34.455Z,1400.00
2022-08-17T06:33:34.590Z,1424.00
2022-08-17T06:34:34.451Z,1436.00
2022-08-17T06:35:34.433Z,1444.00
2022-08-17T06:36:34.429Z,1468.00
2022-08-17T06:37:34.403Z,1480.00
2022-08-17T06:38:38.390Z,1480.00
2022-08-17T06:39:34.450Z,1488.00
2022-08-17T06:40:34.373Z,1492.00
2022-08-17T06:41:36.550Z,1492.00
2022-08-17T06:43:02.055Z,1480.00
2022-08-17T06:43:35.334Z,1492.00
2022-08-17T06:44:43.583Z,1512.00
2022-08-17T06:45:35.319Z,1516.00
2022-08-17T06:46:34.315Z,1512.00
2022-08-17T06:47:34.289Z,1504.00
2022-08-17T06:48:34.297Z,1484.00
2022-08-17T06:49:34.584Z,1456.00
2022-08-17T06:50:34.277Z,1428.00
2022-08-17T06:51:34.266Z,1388.00
2022-08-17T06:52:45.916Z,1364.00
2022-08-17T06:53:35.228Z,1352.00
2022-08-17T06:54:34.228Z,1352.00
2022-08-17T06:55:37.881Z,1344.00
2022-08-17T06:56:53.042Z,1328.00
2022-08-17T06:57:35.197Z,1336.00
2022-08-17T06:58:34.178Z,1332.00
2022-08-17T06:59:55.777Z,1336.00
2022-08-17T07:00:35.245Z,1308.00
2022-08-17T07:01:34.200Z,1272.00
2022-08-17T07:02:52.657Z,1288.00
2022-08-17T07:03:35.119Z,1276.00
2022-08-17T07:04:34.117Z,1256.00
2022-08-17T07:05:34.101Z,1240.00
2022-08-17T07:06:34.090Z,1224.00
2022-08-17T07:07:34.101Z,1196.00
2022-08-17T07:08:35.290Z,1172.00
2022-08-17T07:09:34.400Z,1144.00
2022-08-17T07:10:34.048Z,1112.00
2022-08-17T07:11:34.028Z,1092.00
2022-08-17T07:12:34.042Z,1068.00
2022-08-17T07:13:34.005Z,1056.00
2022-08-17T07:14:33.998Z,1052.00
2022-08-17T07:15:34.001Z,1052.00
2022-08-17T07:16:33.972Z,1044.00
2022-08-17T07:17:47.015Z,1044.00
2022-08-17T07:18:34.945Z,1032.00
2022-08-17T07:19:33.924Z,1028.00
2022-08-17T07:20:33.939Z,1016.00
2022-08-17T07:21:33.925Z,992.00
2022-08-17T07:22:55.263Z,976.00
2022-08-17T07:23:34.904Z,980.00
2022-08-17T07:24:33.897Z,980.00
2022-08-17T07:25:33.873Z,972.00
2022-08-17T07:26:33.885Z,964.00
2022-08-17T07:27:33.866Z,956.00
2022-08-17T07:28:33.853Z,952.00
2022-08-17T07:29:33.933Z,948.00
2022-08-17T07:30:37.257Z,940.00
2022-08-17T07:31:34.792Z,944.00
2022-08-17T07:32:33.805Z,940.00
2022-08-17T07:33:33.777Z,944.00
2022-08-17T07:34:33.777Z,956.00
2022-08-17T07:35:41.068Z,968.00
2022-08-17T07:36:34.765Z,980.00
2022-08-17T07:37:33.737Z,992.00
2022-08-17T07:38:33.736Z,1016.00
2022-08-17T07:39:33.781Z,1048.00
2022-08-17T07:40:33.766Z,1072.00
2022-08-17T07:41:53.454Z,1096.00
2022-08-17T07:42:34.677Z,1128.00
2022-08-17T07:43:33.697Z,1160.00
2022-08-17T07:44:33.669Z,1188.00
2022-08-17T07:45:33.836Z,1224.00
2022-08-17T07:46:33.657Z,1260.00
2022-08-17T07:47:33.617Z,1300.00
2022-08-17T07:48:33.637Z,1336.00
2022-08-17T07:49:33.629Z,1372.00
2022-08-17T07:50:33.601Z,1408.00
2022-08-17T07:51:33.584Z,1444.00
2022-08-17T07:52:51.346Z,1476.00
2022-08-17T07:53:34.570Z,1508.00
2022-08-17T07:54:33.565Z,1540.00
2022-08-17T07:55:33.533Z,1572.00
2022-08-17T07:56:34.738Z,1600.00
2022-08-17T07:57:33.510Z,1620.00
2022-08-17T07:58:33.523Z,1644.00
2022-08-17T07:59:34.023Z,1664.00
2022-08-17T08:00:33.593Z,1676.00
2022-08-17T08:01:39.697Z,1688.00
2022-08-17T08:02:34.473Z,1692.00
2022-08-17T08:03:33.471Z,1696.00
2022-08-17T08:05:49.766Z,1712.00
2022-08-17T08:06:34.435Z,1724.00
2022-08-17T08:07:33.422Z,1728.00
2022-08-17T08:08:33.395Z,1744.00
2022-08-17T08:09:33.410Z,1764.00
2022-08-17T08:10:33.389Z,1776.00
2022-08-17T08:11:33.405Z,1792.00
2022-08-17T08:12:33.818Z,1804.00
2022-08-17T08:13:33.355Z,1840.00
2022-08-17T08:14:33.327Z,1888.00
2022-08-17T08:15:33.317Z,1908.00
2022-08-17T08:16:33.317Z,1940.00
2022-08-17T08:17:33.294Z,2008.00
2022-08-17T08:18:53.673Z,2196.00
2022-08-17T08:19:34.265Z,2264.00
2022-08-17T08:20:51.698Z,2296.00
2022-08-17T08:21:34.246Z,2300.00
2022-08-17T08:22:33.270Z,2244.00
2022-08-17T08:23:33.237Z,2120.00
2022-08-17T08:24:33.298Z,2072.00
2022-08-17T08:25:33.219Z,2020.00
2022-08-17T08:26:33.198Z,2004.00
2022-08-17T08:27:33.186Z,1992.00
2022-08-17T08:28:33.191Z,2000.00
2022-08-17T08:29:33.190Z,2012.00
2022-08-17T08:30:33.214Z,2040.00
2022-08-17T08:31:33.154Z,2084.00
2022-08-17T08:32:33.147Z,2136.00
2022-08-17T08:33:33.132Z,2236.00
2022-08-17T08:34:58.707Z,2404.00
2022-08-17T08:35:34.102Z,2588.00
2022-08-17T08:36:59.290Z,2780.00
2022-08-17T08:37:39.103Z,2800.00
2022-08-17T08:38:34.158Z,2712.00
2022-08-17T08:39:33.140Z,2596.00
2022-08-17T08:40:33.034Z,2684.00
2022-08-17T08:41:33.042Z,2576.00
2022-08-17T08:42:33.021Z,2664.00
2022-08-17T08:43:33.022Z,2596.00
2022-08-17T08:44:59.899Z,2568.00
2022-08-17T08:45:34.845Z,2528.00
2022-08-17T08:46:32.977Z,2492.00
2022-08-17T08:47:35.414Z,2456.00
2022-08-17T08:48:55.812Z,2412.00
2022-08-17T08:50:02.136Z,2424.00
2022-08-17T08:50:38.083Z,2452.00
2022-08-17T08:51:32.934Z,2448.00
2022-08-17T08:52:32.915Z,2428.00
2022-08-17T08:53:32.907Z,2356.00
2022-08-17T08:54:32.918Z,2316.00
2022-08-17T08:55:32.895Z,2296.00
2022-08-17T08:56:32.878Z,2276.00
2022-08-17T08:57:34.362Z,2268.00
2022-08-17T08:58:41.951Z,2264.00
2022-08-17T08:59:33.867Z,2216.00
2022-08-17T09:00:33.819Z,2124.00
2022-08-17T09:01:32.901Z,2096.00
2022-08-17T09:02:34.926Z,2096.00
2022-08-17T09:03:51.746Z,2100.00
2022-08-17T09:04:49.936Z,2172.00
2022-08-17T09:05:33.799Z,2292.00
2022-08-17T09:06:39.233Z,2360.00
2022-08-17T09:07:33.771Z,2544.00
2022-08-17T09:08:32.750Z,2600.00
2022-08-17T09:09:32.735Z,2720.00
2022-08-17T09:10:32.738Z,2792.00
2022-08-17T09:11:32.731Z,2760.00
2022-08-17T09:12:32.700Z,2604.00
2022-08-17T09:13:32.711Z,2684.00
2022-08-17T09:14:32.693Z,2628.00
2022-08-17T09:15:33.690Z,2568.00
2022-08-17T09:16:32.663Z,2584.00
2022-08-17T09:17:32.673Z,2528.00
2022-08-17T09:18:59.896Z,2412.00
2022-08-17T09:19:33.622Z,2404.00
2022-08-17T09:20:32.635Z,2408.00
2022-08-17T09:21:33.958Z,2504.00
2022-08-17T09:22:32.603Z,2368.00
2022-08-17T09:23:32.599Z,2432.00
2022-08-17T09:24:33.084Z,2588.00
2022-08-17T09:25:32.576Z,2340.00
2022-08-17T09:26:32.583Z,2332.00
2022-08-17T09:27:32.548Z,2272.00
2022-08-17T09:28:32.535Z,2268.00
2022-08-17T09:29:32.547Z,2268.00
2022-08-17T09:30:32.516Z,2252.00
2022-08-17T09:31:33.443Z,2276.00
2022-08-17T09:32:32.488Z,2296.00
2022-08-17T09:33:32.479Z,2324.00
2022-08-17T09:34:33.272Z,2316.00
2022-08-17T09:35:32.460Z,2320.00
2022-08-17T09:36:32.479Z,2304.00
2022-08-17T09:37:32.435Z,2280.00
2022-08-17T09:38:32.868Z,2308.00
2022-08-17T09:39:32.469Z,2372.00
2022-08-17T09:40:32.400Z,2436.00
2022-08-17T09:41:32.419Z,2484.00
2022-08-17T09:42:32.387Z,2548.00
2022-08-17T09:43:32.371Z,2636.00
2022-08-17T09:44:32.360Z,2732.00
2022-08-17T09:45:32.359Z,2828.00
2022-08-17T09:46:32.363Z,2824.00
2022-08-17T09:47:32.332Z,2888.00
2022-08-17T09:48:32.324Z,2824.00
2022-08-17T09:49:32.311Z,2752.00
2022-08-17T09:51:05.453Z,2728.00
2022-08-17T09:51:33.291Z,2712.00
2022-08-17T09:52:32.271Z,2616.00
2022-08-17T09:53:32.319Z,2556.00
2022-08-17T09:54:39.178Z,2520.00
2022-08-17T09:55:33.255Z,2500.00
2022-08-17T09:56:32.243Z,2492.00
2022-08-17T09:57:32.675Z,2500.00
2022-08-17T09:58:32.355Z,2520.00
2022-08-17T09:59:38.222Z,2556.00
2022-08-17T10:00:33.196Z,2592.00
2022-08-17T10:01:32.273Z,2632.00
2022-08-17T10:02:32.175Z,2672.00
2022-08-17T10:03:32.228Z,2708.00
2022-08-17T10:04:32.303Z,2724.00
2022-08-17T10:05:32.135Z,2724.00
2022-08-17T10:06:32.115Z,2704.00
2022-08-17T10:07:32.114Z,2684.00
2022-08-17T10:08:32.108Z,2672.00
2022-08-17T10:09:32.099Z,2648.00
2022-08-17T10:10:32.506Z,2620.00
2022-08-17T10:11:33.707Z,2592.00
2022-08-17T10:12:32.071Z,2572.00
2022-08-17T10:13:32.059Z,2564.00
2022-08-17T10:14:37.847Z,2548.00
2022-08-17T10:15:33.039Z,2548.00
2022-08-17T10:16:32.041Z,2556.00
2022-08-17T10:17:31.999Z,2544.00
2022-08-17T10:18:33.315Z,2512.00
2022-08-17T10:19:32.007Z,2468.00
2022-08-17T10:20:32.002Z,2424.00
2022-08-17T10:21:31.993Z,2388.00
2022-08-17T10:22:34.721Z,2348.00
2022-08-17T10:23:32.943Z,2304.00
2022-08-17T10:24:31.944Z,2284.00
2022-08-17T10:25:53.633Z,2264.00
2022-08-17T10:26:40.308Z,2248.00
2022-08-17T10:27:32.916Z,2232.00
2022-08-17T10:28:31.876Z,2204.00
2022-08-17T10:29:47.345Z,2196.00
2022-08-17T10:30:32.910Z,2192.00
2022-08-17T10:31:35.834Z,2192.00
2022-08-17T10:32:31.850Z,2184.00
2022-08-17T10:33:31.876Z,2172.00
2022-08-17T10:34:36.154Z,2168.00
2022-08-17T10:35:32.835Z,2148.00
2022-08-17T10:36:31.795Z,2140.00
2022-08-17T10:37:31.795Z,2156.00
2022-08-17T10:38:31.807Z,2192.00
2022-08-17T10:39:31.863Z,2252.00
2022-08-17T10:40:31.785Z,2324.00
2022-08-17T10:41:32.570Z,2372.00
2022-08-17T10:42:33.009Z,2396.00
2022-08-17T10:43:31.727Z,2400.00
2022-08-17T10:44:39.280Z,2380.00
2022-08-17T10:45:32.707Z,2328.00
2022-08-17T10:46:31.895Z,2244.00
2022-08-17T10:47:42.339Z,2128.00
2022-08-17T10:48:32.660Z,2016.00
2022-08-17T10:49:31.687Z,1908.00
2022-08-17T10:50:31.670Z,1820.00
2022-08-17T10:51:31.665Z,1732.00
2022-08-17T10:52:31.623Z,1628.00
2022-08-17T10:53:31.619Z,1528.00
2022-08-17T10:54:31.614Z,1460.00
2022-08-17T10:55:31.591Z,1416.00
2022-08-17T10:56:31.625Z,1384.00
2022-08-17T10:57:31.568Z,1352.00
2022-08-17T10:58:31.576Z,1320.00
2022-08-17T10:59:31.556Z,1292.00
2022-08-17T11:00:31.547Z,1260.00
2022-08-17T11:01:31.618Z,1228.00
2022-08-17T11:02:31.619Z,1200.00
2022-08-17T11:03:31.523Z,1180.00
2022-08-17T11:04:31.496Z,1160.00
2022-08-17T11:05:31.500Z,1120.00
2022-08-17T11:06:31.478Z,1084.00
2022-08-17T11:07:31.507Z,1052.00
2022-08-17T11:08:31.459Z,1036.00
2022-08-17T11:09:31.455Z,1012.00
2022-08-17T11:10:31.434Z,984.00
2022-08-17T11:11:31.434Z,948.00
2022-08-17T11:12:31.408Z,912.00
2022-08-17T11:13:31.436Z,880.00
2022-08-17T11:14:31.388Z,852.00
2022-08-17T11:15:31.397Z,816.00
2022-08-17T11:16:31.405Z,776.00
2022-08-17T11:17:31.381Z,736.00
2022-08-17T11:18:31.372Z,704.00
2022-08-17T11:19:31.352Z,672.00
2022-08-17T11:20:31.319Z,636.00
2022-08-17T11:21:31.317Z,592.00
2022-08-17T11:22:33.478Z,564.00
2022-08-17T11:23:31.319Z,532.00
2022-08-17T11:24:31.280Z,500.00
2022-08-17T11:25:31.293Z,464.00
2022-08-17T11:26:31.268Z,432.00
2022-08-17T11:27:31.321Z,416.00
2022-08-17T11:28:31.288Z,408.00
2022-08-17T11:29:31.265Z,404.00
2022-08-17T11:30:31.232Z,408.00
2022-08-17T11:31:38.823Z,428.00
2022-08-17T11:32:32.204Z,448.00
2022-08-17T11:33:31.734Z,468.00
2022-08-17T11:34:31.192Z,484.00
2022-08-17T11:35:31.181Z,480.00
2022-08-17T11:36:31.156Z,480.00
2022-08-17T11:37:31.144Z,480.00
2022-08-17T11:38:31.143Z,484.00
2022-08-17T11:39:31.198Z,504.00
2022-08-17T11:40:31.115Z,532.00
2022-08-17T11:41:31.108Z,568.00
2022-08-17T11:42:31.084Z,612.00
2022-08-17T11:43:31.103Z,660.00
2022-08-17T11:44:31.064Z,724.00
2022-08-17T11:45:32.566Z,760.00
2022-08-17T11:46:31.049Z,768.00
2022-08-17T11:47:31.043Z,760.00
2022-08-17T11:48:31.379Z,740.00
2022-08-17T11:49:31.016Z,716.00
2022-08-17T11:50:31.028Z,700.00
2022-08-17T11:51:30.996Z,704.00
2022-08-17T11:52:30.976Z,740.00
2022-08-17T11:53:30.969Z,816.00
2022-08-17T11:54:33.858Z,896.00
2022-08-17T11:55:35.746Z,996.00
2022-08-17T11:56:31.928Z,1104.00
2022-08-17T11:57:30.922Z,1136.00
2022-08-17T11:58:30.907Z,1092.00
2022-08-17T11:59:30.928Z,1040.00
2022-08-17T12:00:30.880Z,1016.00
2022-08-17T12:01:30.881Z,1044.00
2022-08-17T12:02:31.711Z,1096.00
2022-08-17T12:03:30.882Z,1148.00
2022-08-17T12:04:30.864Z,1216.00
2022-08-17T12:05:30.860Z,1280.00
2022-08-17T12:06:31.155Z,1296.00
2022-08-17T12:07:30.820Z,1376.00
2022-08-17T12:08:30.792Z,1444.00
2022-08-17T12:09:30.792Z,1496.00
2022-08-17T12:10:30.812Z,1604.00
2022-08-17T12:11:55.508Z,1744.00
2022-08-17T12:12:31.765Z,1896.00
2022-08-17T12:13:39.535Z,2052.00
2022-08-17T12:15:05.931Z,2192.00
2022-08-17T12:15:31.736Z,2280.00
2022-08-17T12:16:30.707Z,2324.00
2022-08-17T12:17:40.254Z,2348.00
2022-08-17T12:18:31.721Z,2340.00
2022-08-17T12:19:30.684Z,2296.00
2022-08-17T12:20:30.677Z,2232.00
2022-08-17T12:21:30.654Z,2180.00
2022-08-17T12:22:30.656Z,2148.00
2022-08-17T12:23:30.648Z,2140.00
2022-08-17T12:24:30.623Z,2164.00
2022-08-17T12:25:30.627Z,2220.00
2022-08-17T12:26:30.604Z,2308.00
2022-08-17T12:27:56.779Z,2320.00
2022-08-17T12:28:31.605Z,2268.00
2022-08-17T12:29:35.889Z,2192.00
2022-08-17T12:30:31.611Z,2088.00
2022-08-17T12:31:30.543Z,1980.00
2022-08-17T12:32:30.728Z,1896.00
2022-08-17T12:33:30.552Z,1804.00
2022-08-17T12:34:30.516Z,1704.00
2022-08-17T12:35:30.760Z,1608.00